createdAt,value
2023-04-20T00:00:39.852Z,99971.41
2023-04-20T00:05:41.453Z,99967.16
2023-04-20T00:10:45.176Z,99954.56
2023-04-20T00:15:46.772Z,99954.47
2023-04-20T00:20:48.528Z,99950.22
2023-04-20T00:25:51.707Z,99946.84
2023-04-20T00:30:53.338Z,99946.13
2023-04-20T00:35:56.427Z,99947.09
2023-04-20T00:40:58.750Z,99936.94
2023-04-20T00:46:00.622Z,99931.72
2023-04-20T00:51:02.427Z,99928.59
2023-04-20T00:56:04.981Z,99930.25
2023-04-20T01:01:08.883Z,99923.41
2023-04-20T01:06:11.046Z,99920.06
2023-04-20T01:11:12.872Z,99911.41
2023-04-20T01:16:14.686Z,99920.78
2023-04-20T01:21:21.866Z,99923.56
2023-04-20T01:26:25.253Z,99917.66
2023-04-20T01:31:27.311Z,99915.31
2023-04-20T01:36:28.956Z,99915.22
2023-04-20T01:41:30.557Z,99910.28
2023-04-20T01:46:32.271Z,99902.75
2023-04-20T01:51:35.465Z,99902.66
2023-04-20T01:56:37.134Z,99903.38
2023-04-20T02:01:38.951Z,99913.41
2023-04-20T02:06:41.096Z,99907.25
2023-04-20T02:11:44.339Z,99911.56
2023-04-20T02:16:46.806Z,99909.06
2023-04-20T02:21:48.643Z,99896.47
2023-04-20T02:26:50.576Z,99890.50
2023-04-20T02:31:52.513Z,99891.19
2023-04-20T02:36:54.399Z,99879.38
2023-04-20T02:41:56.859Z,99874.25
2023-04-20T02:46:58.782Z,99873.28
2023-04-20T02:52:01.238Z,99875.84
2023-04-20T02:57:03.698Z,99878.22
2023-04-20T03:02:05.739Z,99877.34
2023-04-20T03:07:07.894Z,99883.22
2023-04-20T03:12:11.670Z,99881.38
2023-04-20T03:17:28.262Z,99879.47
2023-04-20T03:22:30.306Z,99873.41
2023-04-20T03:27:35.319Z,99882.53
2023-04-20T03:32:45.305Z,99886.72
2023-04-20T03:37:47.153Z,99890.78
2023-04-20T03:42:48.804Z,99889.06
2023-04-20T03:47:50.493Z,99889.06
2023-04-20T03:52:52.137Z,99891.66
2023-04-20T03:57:55.024Z,99892.53
2023-04-20T04:02:57.729Z,99895.91
2023-04-20T04:08:02.615Z,99900.19
2023-04-20T04:13:04.990Z,99907.88
2023-04-20T04:18:06.939Z,99910.59
2023-04-20T04:23:10.530Z,99907.41
2023-04-20T04:28:20.023Z,99904.16
2023-04-20T04:33:34.704Z,99902.63
2023-04-20T04:38:37.862Z,99913.44
2023-04-20T04:43:41.552Z,99912.03
2023-04-20T04:49:02.835Z,99910.59
2023-04-20T04:54:04.846Z,99909.88
2023-04-20T04:59:06.696Z,99915.78
2023-04-20T05:04:08.614Z,99917.56
2023-04-20T05:09:10.405Z,99923.47
2023-04-20T05:14:12.053Z,99920.41
2023-04-20T05:19:13.682Z,99920.66
2023-04-20T05:24:15.662Z,99935.75
2023-04-20T05:29:17.668Z,99941.78
2023-04-20T05:34:19.543Z,99937.84
2023-04-20T05:39:21.220Z,99934.63
2023-04-20T05:44:22.828Z,99942.28
2023-04-20T05:49:24.395Z,99938.53
2023-04-20T05:54:28.265Z,99933.81
2023-04-20T05:59:29.914Z,99927.50
2023-04-20T06:04:32.097Z,99928.81
2023-04-20T06:09:33.924Z,99928.97
2023-04-20T06:14:35.560Z,99936.63
2023-04-20T06:19:37.305Z,99943.72
2023-04-20T06:24:38.947Z,99937.28
2023-04-20T06:29:40.628Z,99937.00
2023-04-20T06:34:42.231Z,99929.69
2023-04-20T06:39:43.911Z,99927.44
2023-04-20T06:44:45.827Z,99927.53
2023-04-20T06:49:47.496Z,99928.25
2023-04-20T06:54:49.118Z,99931.22
2023-04-20T06:59:50.716Z,99932.38
2023-04-20T07:04:52.505Z,99937.06
2023-04-20T07:09:54.368Z,99940.13
2023-04-20T07:14:56.230Z,99933.38
2023-04-20T07:19:59.062Z,99937.97
2023-04-20T07:25:05.264Z,99946.09
2023-04-20T07:30:08.935Z,99956.56
2023-04-20T07:35:11.316Z,99949.25
2023-04-20T07:40:13.037Z,99941.00
2023-04-20T07:45:14.809Z,99952.94
2023-04-20T07:50:16.522Z,99946.41
2023-04-20T07:55:18.459Z,99947.47
2023-04-20T08:00:20.703Z,99944.16
2023-04-20T08:05:22.534Z,99939.97
2023-04-20T08:10:24.650Z,99949.28
2023-04-20T08:15:26.322Z,99935.88
2023-04-20T08:20:28.029Z,99940.09
2023-04-20T08:25:29.814Z,99943.47
2023-04-20T08:30:31.603Z,99937.53
2023-04-20T08:35:33.423Z,99935.88
2023-04-20T08:40:38.975Z,99928.97
2023-04-20T08:45:44.206Z,99927.25
2023-04-20T08:50:47.136Z,99915.50
2023-04-20T08:55:49.873Z,99926.34
2023-04-20T09:00:51.522Z,99927.72
2023-04-20T09:05:53.168Z,99934.28
2023-04-20T09:10:54.846Z,99919.94
2023-04-20T09:15:56.575Z,99914.28
2023-04-20T09:21:07.892Z,99927.91
2023-04-20T09:26:18.688Z,99912.03
2023-04-20T09:31:21.908Z,99932.41
2023-04-20T09:36:24.320Z,99934.44
2023-04-20T09:41:25.998Z,99925.41
2023-04-20T09:46:32.505Z,99909.69
2023-04-20T09:51:36.568Z,99911.78
2023-04-20T09:56:38.637Z,99911.38
2023-04-20T10:01:40.370Z,99904.13
2023-04-20T10:06:55.829Z,99904.09
2023-04-20T10:12:08.901Z,99898.81
2023-04-20T10:17:11.471Z,99903.28
2023-04-20T10:22:26.197Z,99897.19
2023-04-20T10:27:28.344Z,99888.91
2023-04-20T10:32:30.089Z,99894.53
2023-04-20T10:37:32.343Z,99880.53
2023-04-20T10:42:46.560Z,99880.59
2023-04-20T10:47:48.239Z,99877.97
2023-04-20T10:52:49.914Z,99857.00
2023-04-20T10:57:52.305Z,99853.81
2023-04-20T11:02:58.886Z,99845.44
2023-04-20T11:08:01.377Z,99843.97
2023-04-20T11:13:03.030Z,99841.34
2023-04-20T11:18:09.191Z,99836.28
2023-04-20T11:23:11.235Z,99834.59
2023-04-20T11:28:12.828Z,99822.28
2023-04-20T11:33:14.757Z,99827.72
2023-04-20T11:38:27.630Z,99831.72
2023-04-20T11:43:29.397Z,99818.59
2023-04-20T11:48:31.545Z,99825.13
2023-04-20T11:53:33.360Z,99823.88
2023-04-20T11:58:35.509Z,99830.00
2023-04-20T12:03:37.566Z,99817.84
2023-04-20T12:08:39.477Z,99815.88
2023-04-20T12:13:41.085Z,99817.47
2023-04-20T12:18:42.981Z,99806.63
2023-04-20T12:23:44.868Z,99808.97
2023-04-20T12:28:46.488Z,99801.56
2023-04-20T12:33:48.084Z,99801.63
2023-04-20T12:38:52.928Z,99803.31
2023-04-20T12:43:54.554Z,99785.31
2023-04-20T12:48:56.297Z,99791.28
2023-04-20T12:53:58.062Z,99784.16
2023-04-20T12:58:59.860Z,99769.19
2023-04-20T13:04:01.934Z,99768.59
2023-04-20T13:09:04.436Z,99746.81
2023-04-20T13:14:06.282Z,99751.91
2023-04-20T13:19:08.230Z,99751.59
2023-04-20T13:24:10.140Z,99744.31
2023-04-20T13:29:11.870Z,99742.97
2023-04-20T13:34:13.552Z,99734.47
2023-04-20T13:39:15.960Z,99745.66
2023-04-20T13:44:17.999Z,99739.75
2023-04-20T13:49:22.656Z,99737.84
2023-04-20T13:54:24.539Z,99734.66
2023-04-20T13:59:26.156Z,99726.03
2023-04-20T14:04:27.794Z,99730.28
2023-04-20T14:09:31.297Z,99721.75
2023-04-20T14:14:33.401Z,99727.41
2023-04-20T14:19:35.104Z,99720.00
2023-04-20T14:24:36.748Z,99729.38
2023-04-20T14:29:38.367Z,99728.44
2023-04-20T14:34:39.953Z,99719.25
2023-04-20T14:39:41.567Z,99722.81
2023-04-20T14:44:43.244Z,99709.97
2023-04-20T14:49:44.860Z,99713.56
2023-04-20T14:54:46.480Z,99729.25
2023-04-20T14:59:48.137Z,99715.69
2023-04-20T15:04:50.510Z,99710.56
2023-04-20T15:09:52.295Z,99708.69
2023-04-20T15:14:54.105Z,99701.25
2023-04-20T15:19:55.764Z,99709.25
2023-04-20T15:24:57.595Z,99715.53
2023-04-20T15:29:59.248Z,99711.97
2023-04-20T15:35:01.367Z,99708.69
2023-04-20T15:40:04.013Z,99708.09
2023-04-20T15:45:06.401Z,99711.25
2023-04-20T15:50:08.567Z,99704.38
2023-04-20T15:55:10.977Z,99696.66
2023-04-20T16:00:13.676Z,99696.03
2023-04-20T16:05:15.468Z,99704.13
2023-04-20T16:10:17.182Z,99700.00
2023-04-20T16:15:19.565Z,99704.63
2023-04-20T16:20:21.255Z,99697.38
2023-04-20T16:25:23.273Z,99701.00
2023-04-20T16:30:25.147Z,99700.00
2023-04-20T16:35:26.864Z,99702.13
2023-04-20T16:40:28.580Z,99699.63
2023-04-20T16:45:30.606Z,99698.91
2023-04-20T16:50:32.489Z,99694.19
2023-04-20T16:55:34.231Z,99704.44
2023-04-20T17:00:37.006Z,99704.41
2023-04-20T17:05:41.598Z,99708.88
2023-04-20T17:10:43.855Z,99703.38
2023-04-20T17:15:46.327Z,99708.75
2023-04-20T17:20:48.578Z,99715.81
2023-04-20T17:25:51.328Z,99720.19
2023-04-20T17:30:52.964Z,99722.03
2023-04-20T17:35:56.895Z,99716.97
2023-04-20T17:40:58.502Z,99725.91
2023-04-20T17:46:00.770Z,99734.78
2023-04-20T17:51:02.580Z,99736.63
2023-04-20T17:56:06.218Z,99736.91
2023-04-20T18:01:07.829Z,99743.91
2023-04-20T18:06:09.460Z,99742.34
2023-04-20T18:11:11.457Z,99749.19
2023-04-20T18:16:13.190Z,99767.13
2023-04-20T18:21:15.356Z,99765.47
2023-04-20T18:26:20.501Z,99769.81
2023-04-20T18:31:22.199Z,99771.63
2023-04-20T18:36:24.159Z,99779.31
2023-04-20T18:41:27.470Z,99791.25
2023-04-20T18:46:29.402Z,99797.34
2023-04-20T18:51:32.078Z,99797.41
2023-04-20T18:56:33.792Z,99795.72
2023-04-20T19:01:40.297Z,99803.34
2023-04-20T19:06:42.235Z,99809.28
2023-04-20T19:11:43.940Z,99808.50
2023-04-20T19:16:45.659Z,99808.56
2023-04-20T19:21:48.348Z,99810.31
2023-04-20T19:26:49.935Z,99812.88
2023-04-20T19:31:52.014Z,99824.72
2023-04-20T19:36:54.157Z,99827.25
2023-04-20T19:41:55.808Z,99826.41
2023-04-20T19:46:57.379Z,99825.53
2023-04-20T19:51:59.065Z,99831.41
2023-04-20T19:57:01.270Z,99833.09
2023-04-20T20:02:03.587Z,99829.69
2023-04-20T20:07:05.391Z,99834.75
2023-04-20T20:12:08.542Z,99843.16
2023-04-20T20:17:10.679Z,99838.06
2023-04-20T20:22:12.263Z,99838.91
2023-04-20T20:27:14.015Z,99831.28
2023-04-20T20:32:15.875Z,99830.41
2023-04-20T20:37:17.571Z,99832.09
2023-04-20T20:42:19.270Z,99825.28
2023-04-20T20:47:20.988Z,99826.91
2023-04-20T20:52:23.010Z,99826.88
2023-04-20T20:57:24.603Z,99823.34
2023-04-20T21:02:26.448Z,99829.19
2023-04-20T21:07:28.318Z,99826.63
2023-04-20T21:12:30.296Z,99833.31
2023-04-20T21:17:32.036Z,99829.06
2023-04-20T21:22:33.875Z,99833.13
2023-04-20T21:27:35.647Z,99843.19
2023-04-20T21:32:37.279Z,99842.25
2023-04-20T21:37:38.932Z,99843.03
2023-04-20T21:42:40.552Z,99837.09
2023-04-20T21:47:42.259Z,99842.94
2023-04-20T21:52:43.937Z,99852.84
2023-04-20T21:57:45.566Z,99851.13
2023-04-20T22:02:47.948Z,99853.59
2023-04-20T22:07:51.172Z,99853.47
2023-04-20T22:12:53.017Z,99861.81
2023-04-20T22:17:54.717Z,99852.50
2023-04-20T22:22:57.374Z,99860.84
2023-04-20T22:27:59.001Z,99868.38
2023-04-20T22:33:00.676Z,99866.59
2023-04-20T22:38:02.364Z,99872.25
2023-04-20T22:43:04.271Z,99872.88
2023-04-20T22:48:06.696Z,99872.06
2023-04-20T22:53:08.331Z,99875.34
2023-04-20T22:58:10.022Z,99871.03
2023-04-20T23:03:11.794Z,99876.84
2023-04-20T23:08:13.806Z,99870.16
2023-04-20T23:13:18.242Z,99870.97
2023-04-20T23:18:19.868Z,99881.81
2023-04-20T23:23:21.464Z,99875.69
2023-04-20T23:28:23.191Z,99869.69
2023-04-20T23:33:24.941Z,99873.81
2023-04-20T23:38:26.897Z,99873.88
2023-04-20T23:43:28.553Z,99871.22
2023-04-20T23:48:30.152Z,99872.03
2023-04-20T23:53:35.852Z,99866.22
2023-04-20T23:58:38.139Z,99856.16
